Beaverton, OR (97007)

2:14 PM PST on December 26, 2014 (GMT -0800)
Cooper Mountain | Change Station
CLOSE
Current Station
Personal Weather Station
Location: Beaverton, OR
Elevation: 728 ft
Nearby Weather Stations

Elev 728 ft 45.45 °N, 122.87 °W | Updated 7 minutes ago

Overcast
Overcast
44.1 °F
Feels Like 44 °F
N
1.7
Wind Variable Wind from NNW

Today
High -- | Low -- °F
--% Chance of Precip.
Yesterday
High -- | Low -- °F
Precip. -- in
7:50 AM 4:34 PM
Waxing Crescent, 29% visible
Pressure 30.34 in
Visibility 7.0 miles
Clouds Overcast 800 ft
Windchill 44 °F
Dew Point 44 °F
Humidity 98%
Rainfall 0.00 in
Snow Depth Not available.
UV 0 out of 12
Pollen 1.20 out of 12
Air Quality Not available.
Flu Activity Not available.
METAR KHIO 262153Z 00000KT 7SM OVC008 08/06 A3034 RMK AO2 SLP274 T00780056

More Conditions Fewer Conditions

Pressure 30.34 in
Visibility 7.0 miles
Clouds Overcast 800 ft
Windchill 44 °F
Dew Point 44 °F
Humidity 98%
Rainfall 0.00 in
Snow Depth Not available.
UV 0 out of 12
Pollen 1.20 out of 12
Air Quality Not available.
Flu Activity Not available.
METAR KHIO 262153Z 00000KT 7SM OVC008 08/06 A3034 RMK AO2 SLP274 T00780056

More Conditions Fewer Conditions

10-Day Weather Forecast

Almanac

Astronomy

Dec. 26, 2014 Rise Set
Actual Time
Civil Twilight
Nautical Twilight
Astronomical Twilight
Moon
Length of Visible Light
Length of Day
Tomorrow will be .
, % of the Moon is Illuminated

Today's Extremes

State Highs State Lows

Community

WunderPhotos

Upload Photos

1,780,735 photos uploaded!

WunderBlogs® & News

Nearby

Air Quality

  Air Quality AQ Index Pollutant
Not available.

Snow Depth

Station Depth Elevation

Earthquake Activity

City Distance Mag. Time & Date
Minimum magnitude displayed is 2.5.

Coastal Water Temperatures

Place Temperature

Nearby Weather Stations